Time;durP1;ratioP1;P1;durP2;ratioP2;P2;SDS_P1;SDS_P2;PMS_P1;PMS_P2;Temp;Humidity;BMP_temperature;BMP_pressure;BME280_temperature;BME280_humidity;BME280_pressure;Samples;Min_cycle;Max_cycle;Signal;HPM_P1;HPM_P2
2022/04/11 00:00:56;;;;;;;3.10;1.80;;;23.60;99.90;;;;;;5070474;28;20250;-86
2022/04/11 00:03:26;;;;;;;4.53;2.05;;;23.70;99.90;;;;;;5065819;28;20200;-84
2022/04/11 00:05:57;;;;;;;5.63;3.47;;;23.70;99.90;;;;;;5069613;28;20648;-82
2022/04/11 00:08:27;;;;;;;5.30;2.40;;;23.80;99.90;;;;;;5068716;28;20214;-87
2022/04/11 00:11:00;;;;;;;3.88;1.80;;;23.90;99.90;;;;;;5068520;28;20193;-86
2022/04/11 00:13:30;;;;;;;4.45;1.95;;;23.90;99.90;;;;;;5069116;28;20220;-83
2022/04/11 00:16:01;;;;;;;4.70;1.88;;;24.00;99.90;;;;;;5067020;28;20235;-71
2022/04/11 00:18:32;;;;;;;5.18;2.30;;;24.10;99.90;;;;;;5069667;28;20641;-86
2022/04/11 00:21:02;;;;;;;3.45;1.73;;;24.10;99.90;;;;;;5069471;28;20272;-84
2022/04/11 00:23:33;;;;;;;2.80;1.60;;;24.10;99.90;;;;;;5070247;28;20246;-83
2022/04/11 00:26:05;;;;;;;5.65;2.33;;;24.20;99.90;;;;;;5070079;28;20250;-84
2022/04/11 00:28:36;;;;;;;4.25;2.10;;;24.30;99.90;;;;;;5071419;28;20189;-82
2022/04/11 00:31:07;;;;;;;3.28;1.67;;;24.30;99.90;;;;;;5068859;28;20585;-86
2022/04/11 00:33:37;;;;;;;3.03;1.13;;;24.40;99.90;;;;;;5066220;28;20633;-85
2022/04/11 00:36:08;;;;;;;2.33;1.30;;;24.50;99.90;;;;;;5069816;28;20242;-82
2022/04/11 00:38:39;;;;;;;1.75;1.38;;;24.60;99.90;;;;;;5072728;28;20629;-81
2022/04/11 00:41:11;;;;;;;2.58;1.42;;;24.70;99.90;;;;;;5069900;28;20259;-86
2022/04/11 00:43:43;;;;;;;2.85;1.50;;;24.80;99.90;;;;;;5069385;28;20181;-85
2022/04/11 00:46:14;;;;;;;2.13;1.20;;;24.80;99.90;;;;;;5070704;28;20706;-81
2022/04/11 00:48:45;;;;;;;2.25;1.40;;;25.00;99.90;;;;;;5067322;28;20308;-88
2022/04/11 00:51:18;;;;;;;3.58;1.58;;;25.00;99.90;;;;;;5063117;28;20197;-85
2022/04/11 00:53:50;;;;;;;2.65;1.38;;;25.20;99.90;;;;;;5066769;28;20216;-85
2022/04/11 00:56:23;;;;;;;2.35;1.52;;;25.20;99.90;;;;;;5067652;28;20189;-81
2022/04/11 00:58:54;;;;;;;3.80;1.58;;;25.40;99.90;;;;;;5068288;28;20235;-83
2022/04/11 01:01:25;;;;;;;6.43;1.40;;;25.50;99.90;;;;;;5070321;28;20197;-85
2022/04/11 01:03:55;;;;;;;2.33;1.52;;;25.60;99.90;;;;;;5065129;28;20603;-85
2022/04/11 01:06:26;;;;;;;2.00;1.45;;;25.70;99.90;;;;;;5069677;28;20198;-85
2022/04/11 01:08:59;;;;;;;2.22;1.50;;;25.80;99.90;;;;;;5070701;28;20188;-83
2022/04/11 01:11:32;;;;;;;2.78;1.60;;;25.80;99.90;;;;;;5068447;28;20190;-86
2022/04/11 01:14:02;;;;;;;3.25;1.60;;;25.90;99.90;;;;;;5071013;28;20278;-86
2022/04/11 01:16:33;;;;;;;3.47;1.48;;;26.00;99.90;;;;;;5062145;28;20596;-86
2022/04/11 01:19:04;;;;;;;3.10;1.33;;;26.10;99.90;;;;;;5067499;28;20641;-84
2022/04/11 01:21:36;;;;;;;2.95;1.48;;;26.10;99.90;;;;;;5067817;28;20240;-84
2022/04/11 01:24:07;;;;;;;3.03;1.33;;;26.20;99.90;;;;;;5068794;28;20201;-85
2022/04/11 01:26:39;;;;;;;1.95;1.00;;;26.30;99.90;;;;;;5071970;28;20189;-72
2022/04/11 01:29:14;;;;;;;3.83;1.00;;;26.40;99.90;;;;;;5059310;28;20258;-76
2022/04/11 01:31:44;;;;;;;2.47;1.27;;;26.50;99.90;;;;;;5059931;28;20197;-84
2022/04/11 01:34:15;;;;;;;3.95;1.00;;;26.70;99.90;;;;;;5059951;28;20209;-80
2022/04/11 01:36:48;;;;;;;1.83;0.90;;;26.90;99.90;;;;;;5061675;28;20236;-84
2022/04/11 01:39:18;;;;;;;2.20;0.90;;;26.80;99.90;;;;;;5064862;28;20329;-81
2022/04/11 01:41:49;;;;;;;3.47;1.08;;;26.70;99.90;;;;;;5063330;28;20200;-81
2022/04/11 01:44:20;;;;;;;2.22;1.30;;;26.60;99.90;;;;;;5061194;28;20193;-81
2022/04/11 01:46:51;;;;;;;3.65;1.00;;;26.90;99.90;;;;;;5061933;28;20216;-80
2022/04/11 01:49:22;;;;;;;2.42;0.85;;;26.90;99.90;;;;;;5059966;28;20663;-85
2022/04/11 01:51:54;;;;;;;2.05;0.93;;;27.00;99.90;;;;;;5064297;28;20706;-83
2022/04/11 01:54:25;;;;;;;2.15;1.00;;;27.10;99.90;;;;;;5064768;28;20209;-82
2022/04/11 01:56:55;;;;;;;1.25;1.00;;;27.20;99.90;;;;;;5065450;28;20193;-83
2022/04/11 01:59:26;;;;;;;1.05;0.70;;;27.30;99.90;;;;;;5068257;28;20230;-87
2022/04/11 02:01:57;;;;;;;1.33;0.63;;;27.30;99.90;;;;;;5068510;28;20240;-83
2022/04/11 02:04:28;;;;;;;1.48;0.75;;;27.30;99.90;;;;;;5063971;28;20636;-74
2022/04/11 02:07:00;;;;;;;0.93;0.70;;;27.40;99.90;;;;;;5067452;28;20318;-86
2022/04/11 02:09:31;;;;;;;1.27;0.70;;;27.50;99.90;;;;;;5068345;28;20193;-85
2022/04/11 02:12:02;;;;;;;3.78;0.90;;;27.60;99.90;;;;;;5058907;28;20266;-86
2022/04/11 02:14:32;;;;;;;1.33;0.77;;;27.70;99.90;;;;;;5066890;28;20221;-85
2022/04/11 02:17:03;;;;;;;3.13;0.68;;;27.80;99.90;;;;;;5064359;28;20207;-88
2022/04/11 02:19:33;;;;;;;0.75;0.65;;;27.80;99.90;;;;;;5068482;28;20664;-86
2022/04/11 02:22:06;;;;;;;3.95;0.85;;;27.70;99.90;;;;;;5066090;28;20235;-77
2022/04/11 02:24:37;;;;;;;0.77;0.60;;;27.80;99.90;;;;;;5063595;28;20280;-87
2022/04/11 02:27:08;;;;;;;1.00;0.70;;;27.80;99.90;;;;;;5066721;28;20192;-85
2022/04/11 02:29:39;;;;;;;1.48;0.70;;;27.90;99.90;;;;;;5069212;28;20189;-79
2022/04/11 02:32:10;;;;;;;1.42;0.80;;;27.90;99.90;;;;;;5067454;28;20582;-82
2022/04/11 02:34:41;;;;;;;1.08;0.68;;;28.00;99.90;;;;;;5062866;28;20289;-81
2022/04/11 02:37:14;;;;;;;1.08;0.50;;;28.10;99.90;;;;;;5061533;28;20201;-83
2022/04/11 02:39:44;;;;;;;1.10;0.47;;;28.10;99.90;;;;;;5067733;28;20182;-83
2022/04/11 02:42:23;;;;;;;2.13;0.60;;;27.90;99.90;;;;;;5072625;28;20193;-79
2022/04/11 02:44:54;;;;;;;0.80;0.70;;;28.00;99.90;;;;;;5068599;28;20193;-78
2022/04/11 02:47:25;;;;;;;1.48;1.15;;;28.00;99.90;;;;;;5073827;28;20213;-75
2022/04/11 02:49:56;;;;;;;0.70;0.60;;;28.20;99.90;;;;;;5064373;28;20225;-81
2022/04/11 02:52:28;;;;;;;1.25;0.50;;;28.30;99.90;;;;;;5067316;28;20192;-76
2022/04/11 02:54:59;;;;;;;0.40;0.40;;;28.40;99.90;;;;;;5066281;28;20380;-74
2022/04/11 02:57:30;;;;;;;1.95;0.70;;;28.30;99.90;;;;;;5063281;28;20193;-77
2022/04/11 03:00:01;;;;;;;0.63;0.47;;;28.30;99.90;;;;;;5068546;28;20272;-81
2022/04/11 03:02:32;;;;;;;0.98;0.47;;;28.30;99.90;;;;;;5061584;28;20201;-74
2022/04/11 03:05:02;;;;;;;1.25;0.70;;;28.30;99.90;;;;;;5061046;28;20193;-74
2022/04/11 03:07:35;;;;;;;2.17;0.60;;;28.20;99.90;;;;;;5070604;28;20701;-84
2022/04/11 03:10:06;;;;;;;0.70;0.47;;;28.20;99.90;;;;;;5068765;28;20222;-88
2022/04/11 03:12:37;;;;;;;0.95;0.50;;;28.10;99.90;;;;;;5066515;28;20220;-89
2022/04/11 03:15:08;;;;;;;2.28;0.50;;;28.10;99.90;;;;;;5071630;28;20224;-88
2022/04/11 03:17:39;;;;;;;0.73;0.47;;;28.00;99.90;;;;;;5066477;28;20633;-88
2022/04/11 03:20:10;;;;;;;0.75;0.50;;;27.90;99.90;;;;;;5069257;28;20710;-82
2022/04/11 03:22:43;;;;;;;1.13;0.50;;;28.00;99.90;;;;;;5066605;28;20186;-77
2022/04/11 03:25:14;;;;;;;0.55;0.55;;;28.10;99.90;;;;;;5067503;28;20192;-82
2022/04/11 03:27:44;;;;;;;1.27;0.50;;;28.10;99.90;;;;;;5059089;28;20193;-87
2022/04/11 03:30:15;;;;;;;0.65;0.65;;;28.20;99.90;;;;;;5061637;28;20235;-74
2022/04/11 03:32:46;;;;;;;0.70;0.63;;;28.30;99.90;;;;;;5058320;28;20196;-90
2022/04/11 03:35:17;;;;;;;1.98;0.68;;;28.30;99.90;;;;;;5066091;28;20292;-82
2022/04/11 03:37:49;;;;;;;1.95;0.70;;;28.30;99.90;;;;;;5057958;28;20189;-89
2022/04/11 03:40:20;;;;;;;1.05;0.60;;;28.20;99.90;;;;;;5067976;28;20698;-85
2022/04/11 03:42:50;;;;;;;0.50;0.40;;;28.20;99.90;;;;;;5072751;28;20235;-83
2022/04/11 03:45:21;;;;;;;1.38;0.77;;;28.20;99.90;;;;;;5069279;28;20189;-79
2022/04/11 03:47:52;;;;;;;1.52;0.60;;;28.10;99.90;;;;;;5066831;28;20229;-86
2022/04/11 03:50:23;;;;;;;0.88;0.60;;;28.10;99.90;;;;;;5061009;28;20190;-90
2022/04/11 03:52:56;;;;;;;0.50;0.50;;;27.90;99.90;;;;;;5061332;28;20180;-88
2022/04/11 03:55:26;;;;;;;0.50;0.50;;;27.80;99.90;;;;;;5062261;28;20201;-87
2022/04/11 03:57:57;;;;;;;3.92;0.80;;;27.70;99.90;;;;;;5058919;28;20186;-86
2022/04/11 04:00:28;;;;;;;1.00;0.65;;;27.70;99.90;;;;;;5054002;28;20201;-73
2022/04/11 04:03:08;;;;;;;3.05;0.70;;;27.80;99.90;;;;;;5060496;28;20627;-72
2022/04/11 04:05:44;;;;;;;0.70;0.70;;;27.80;99.90;;;;;;5061671;28;20247;-74
2022/04/11 04:08:18;;;;;;;2.15;0.80;;;27.70;99.90;;;;;;5062697;28;20197;-70
2022/04/11 04:10:49;;;;;;;4.80;1.20;;;27.60;99.90;;;;;;5070168;28;20184;-71
2022/04/11 04:13:20;;;;;;;1.13;0.80;;;27.50;99.90;;;;;;5059177;28;20634;-71
2022/04/11 04:15:50;;;;;;;1.80;0.73;;;27.40;99.90;;;;;;5059018;28;20233;-88
2022/04/11 04:18:22;;;;;;;3.58;1.00;;;27.20;99.90;;;;;;5054983;28;20193;-89
2022/04/11 04:20:52;;;;;;;1.85;0.90;;;26.90;99.90;;;;;;5060454;28;20182;-83
2022/04/11 04:23:25;;;;;;;2.60;0.80;;;26.80;99.90;;;;;;5071140;28;20190;-84
2022/04/11 04:25:56;;;;;;;2.40;0.90;;;26.80;99.90;;;;;;5069304;28;20234;-79
2022/04/11 04:28:27;;;;;;;1.58;0.80;;;26.80;99.90;;;;;;5059855;28;20190;-86
2022/04/11 04:30:57;;;;;;;2.67;0.98;;;26.90;99.90;;;;;;5053870;28;20706;-86
2022/04/11 04:33:28;;;;;;;1.55;0.80;;;26.80;99.90;;;;;;5059287;28;20193;-82
2022/04/11 04:35:58;;;;;;;1.65;0.88;;;26.60;99.90;;;;;;5055329;28;20213;-81
2022/04/11 04:38:31;;;;;;;1.95;0.77;;;26.50;99.90;;;;;;5059533;28;20212;-75
2022/04/11 04:41:02;;;;;;;2.00;0.90;;;26.40;99.90;;;;;;5054045;28;20311;-73
2022/04/11 04:43:32;;;;;;;1.25;0.90;;;26.30;99.90;;;;;;5070972;28;20193;-89
2022/04/11 04:46:03;;;;;;;8.23;1.95;;;26.20;99.90;;;;;;5069567;28;20267;-83
2022/04/11 04:48:33;;;;;;;3.85;0.90;;;26.20;99.90;;;;;;5056058;28;20771;-84
2022/04/11 04:51:04;;;;;;;1.45;0.90;;;26.10;99.90;;;;;;5058422;28;20609;-73
2022/04/11 04:53:37;;;;;;;3.13;1.30;;;26.00;99.90;;;;;;5059006;28;20197;-80
2022/04/11 04:56:08;;;;;;;1.42;0.95;;;25.90;99.90;;;;;;5060890;28;20221;-88
2022/04/11 04:58:38;;;;;;;1.38;0.90;;;25.80;99.90;;;;;;5064827;28;20190;-88
2022/04/11 05:01:09;;;;;;;2.15;0.80;;;25.80;99.90;;;;;;5061381;28;20194;-83
2022/04/11 05:03:40;;;;;;;2.22;1.00;;;25.70;99.90;;;;;;5054032;28;20198;-87
2022/04/11 05:06:10;;;;;;;3.30;0.90;;;25.60;99.90;;;;;;5057414;28;20197;-80
2022/04/11 05:08:43;;;;;;;3.40;1.05;;;25.70;99.90;;;;;;5053853;28;20261;-81
2022/04/11 05:11:15;;;;;;;2.90;1.00;;;25.70;99.90;;;;;;5055447;28;20190;-83
2022/04/11 05:13:46;;;;;;;2.88;1.10;;;25.70;99.90;;;;;;5058808;28;20220;-84
2022/04/11 05:16:18;;;;;;;2.85;1.23;;;25.70;99.90;;;;;;5053136;28;20230;-89
2022/04/11 05:18:49;;;;;;;1.83;1.20;;;25.60;99.90;;;;;;5053922;28;20228;-86
2022/04/11 05:21:19;;;;;;;3.55;1.13;;;25.50;99.90;;;;;;5061844;28;20200;-85
2022/04/11 05:23:52;;;;;;;2.10;1.10;;;25.40;99.90;;;;;;5068542;28;20185;-88
2022/04/11 05:26:23;;;;;;;1.88;0.93;;;25.40;99.90;;;;;;5072476;28;20267;-86
2022/04/11 05:28:56;;;;;;;3.53;1.50;;;25.30;99.90;;;;;;5056151;28;20182;-82
2022/04/11 05:31:27;;;;;;;2.83;1.00;;;25.20;99.90;;;;;;5057271;28;20190;-78
2022/04/11 05:33:57;;;;;;;1.77;1.08;;;25.20;99.90;;;;;;5056086;28;20232;-86
2022/04/11 05:36:28;;;;;;;2.28;1.13;;;25.20;99.90;;;;;;5057911;28;20213;-83
2022/04/11 05:39:00;;;;;;;2.70;1.20;;;25.10;99.90;;;;;;5063699;28;20185;-78
2022/04/11 05:41:31;;;;;;;4.20;1.30;;;25.00;99.90;;;;;;5071228;28;20710;-74
2022/04/11 05:44:02;;;;;;;2.10;0.80;;;25.00;99.90;;;;;;5053222;28;20193;-83
2022/04/11 05:46:32;;;;;;;2.38;0.93;;;25.10;99.90;;;;;;5063183;28;20220;-77
2022/04/11 05:49:03;;;;;;;1.75;1.00;;;25.00;99.90;;;;;;5055871;28;20278;-88
2022/04/11 05:51:33;;;;;;;2.35;0.80;;;25.00;99.90;;;;;;5059636;28;20196;-80
2022/04/11 05:54:06;;;;;;;2.67;0.80;;;25.00;99.90;;;;;;5060741;28;20239;-87
2022/04/11 05:56:37;;;;;;;2.28;0.90;;;24.90;99.90;;;;;;5061724;28;20275;-88
2022/04/11 05:59:08;;;;;;;2.97;0.88;;;24.80;99.90;;;;;;5053325;28;20646;-78
2022/04/11 06:01:40;;;;;;;3.83;1.00;;;24.90;99.90;;;;;;5066255;28;20271;-84
2022/04/11 06:04:10;;;;;;;3.28;1.00;;;24.80;99.90;;;;;;5061090;28;20228;-81
2022/04/11 06:06:41;;;;;;;6.40;1.38;;;24.80;99.90;;;;;;5061842;28;20633;-85
2022/04/11 06:09:13;;;;;;;3.15;1.15;;;24.70;99.90;;;;;;5055172;28;20201;-75
2022/04/11 06:11:44;;;;;;;4.05;1.20;;;24.60;99.90;;;;;;5064242;28;20185;-76
2022/04/11 06:14:15;;;;;;;5.18;1.30;;;24.50;99.90;;;;;;5065426;28;20200;-89
2022/04/11 06:16:45;;;;;;;3.63;1.55;;;24.40;99.90;;;;;;5062053;28;20217;-80
2022/04/11 06:19:17;;;;;;;3.53;1.25;;;24.30;99.90;;;;;;5061522;28;20188;-84
2022/04/11 06:21:47;;;;;;;3.55;1.08;;;24.20;99.90;;;;;;5067399;28;20185;-82
2022/04/11 06:24:20;;;;;;;4.85;1.30;;;24.10;99.90;;;;;;5066878;28;20189;-83
2022/04/11 06:26:50;;;;;;;3.15;1.20;;;24.10;99.90;;;;;;5072469;28;20185;-84
2022/04/11 06:29:21;;;;;;;4.18;1.50;;;24.10;99.90;;;;;;5065010;28;20259;-86
2022/04/11 06:31:51;;;;;;;5.53;1.20;;;24.00;99.90;;;;;;5064777;28;20205;-86
2022/04/11 06:34:22;;;;;;;4.57;1.60;;;24.00;99.90;;;;;;5068803;28;20243;-78
2022/04/11 06:36:53;;;;;;;4.80;1.23;;;23.90;99.90;;;;;;5065593;28;20236;-78
2022/04/11 06:39:25;;;;;;;5.47;1.40;;;23.90;99.90;;;;;;5061384;28;20196;-88
2022/04/11 06:41:56;;;;;;;6.95;1.40;;;23.80;99.90;;;;;;5066514;28;20213;-87
2022/04/11 06:44:27;;;;;;;5.72;1.50;;;23.70;99.90;;;;;;5064144;28;20213;-89
2022/04/11 06:46:57;;;;;;;8.50;1.67;;;23.60;99.90;;;;;;5070073;28;20270;-81
2022/04/11 06:49:28;;;;;;;7.35;1.30;;;23.60;99.90;;;;;;5062526;28;20221;-80
2022/04/11 06:51:58;;;;;;;6.90;1.50;;;23.50;99.90;;;;;;5072081;28;20185;-86
2022/04/11 06:54:31;;;;;;;5.28;1.45;;;23.40;99.90;;;;;;5062945;28;20186;-83
2022/04/11 06:57:02;;;;;;;6.15;1.50;;;23.40;99.90;;;;;;5058192;28;20213;-74
2022/04/11 06:59:33;;;;;;;5.65;1.55;;;23.30;99.90;;;;;;5061960;28;20201;-82
2022/04/11 07:02:03;;;;;;;10.65;1.80;;;23.30;99.90;;;;;;5055741;28;20194;-81
2022/04/11 07:04:34;;;;;;;6.53;1.70;;;23.20;99.90;;;;;;5060536;28;20186;-77
2022/04/11 07:07:05;;;;;;;6.90;1.85;;;23.20;99.90;;;;;;5056508;28;20181;-76
2022/04/11 07:09:37;;;;;;;9.18;1.98;;;23.00;99.90;;;;;;5061197;28;20250;-83
2022/04/11 07:12:09;;;;;;;13.82;2.67;;;23.00;99.90;;;;;;5057858;28;20222;-87
2022/04/11 07:14:39;;;;;;;12.02;2.55;;;22.90;99.90;;;;;;5068698;28;20196;-89
2022/04/11 07:17:10;;;;;;;9.65;3.55;;;22.90;99.90;;;;;;5065823;28;20213;-77
2022/04/11 07:19:41;;;;;;;12.10;2.90;;;22.90;99.90;;;;;;5070280;28;20903;-79
2022/04/11 07:22:11;;;;;;;11.85;2.42;;;22.90;99.90;;;;;;5065405;28;20185;-80
2022/04/11 07:24:44;;;;;;;12.48;2.67;;;22.80;99.90;;;;;;5060569;28;20663;-80
2022/04/11 07:27:14;;;;;;;11.13;2.75;;;22.80;99.90;;;;;;5063253;28;20280;-79
2022/04/11 07:29:45;;;;;;;10.98;2.47;;;22.70;99.90;;;;;;5065358;28;20190;-78
2022/04/11 07:32:15;;;;;;;13.13;2.67;;;22.60;99.90;;;;;;5061011;28;20205;-76
2022/04/11 07:34:47;;;;;;;13.43;3.63;;;22.60;99.90;;;;;;5066742;28;20184;-79
2022/04/11 07:37:18;;;;;;;16.33;3.85;;;22.70;99.90;;;;;;5063217;28;20300;-81
2022/04/11 07:39:50;;;;;;;16.25;5.45;;;22.70;99.90;;;;;;5058844;28;20190;-76
2022/04/11 07:42:21;;;;;;;15.20;5.38;;;22.70;99.90;;;;;;5061430;28;20216;-81
2022/04/11 07:44:52;;;;;;;18.77;6.10;;;22.60;99.90;;;;;;5062356;28;20700;-80
2022/04/11 07:47:22;;;;;;;22.02;6.70;;;22.60;99.90;;;;;;5063330;28;20723;-74
2022/04/11 07:49:53;;;;;;;22.08;6.63;;;22.50;99.90;;;;;;5061392;28;20265;-79
2022/04/11 07:52:24;;;;;;;19.02;6.40;;;22.50;99.90;;;;;;5068883;28;20193;-75
2022/04/11 07:54:56;;;;;;;25.40;6.72;;;22.40;99.90;;;;;;5055534;28;20193;-81
2022/04/11 07:57:27;;;;;;;24.23;7.80;;;22.40;99.90;;;;;;5054613;28;20267;-75
2022/04/11 07:59:57;;;;;;;18.77;7.13;;;22.40;99.90;;;;;;5060990;28;20243;-85
2022/04/11 08:02:28;;;;;;;69.47;39.03;;;22.30;99.90;;;;;;5057026;28;20373;-79
2022/04/11 08:05:02;;;;;;;18.23;8.00;;;22.30;99.90;;;;;;5060731;28;20196;-82
2022/04/11 08:07:33;;;;;;;20.70;7.10;;;22.30;99.90;;;;;;5063021;28;20644;-83
2022/04/11 08:10:07;;;;;;;23.60;7.05;;;22.20;99.90;;;;;;5060113;28;20235;-82
2022/04/11 08:12:38;;;;;;;21.45;6.90;;;22.20;99.90;;;;;;5058561;28;20197;-79
2022/04/11 08:15:09;;;;;;;20.75;6.65;;;22.30;99.90;;;;;;5059435;28;20243;-74
2022/04/11 08:17:40;;;;;;;24.15;6.63;;;22.30;99.90;;;;;;5065092;28;20224;-75
2022/04/11 08:20:11;;;;;;;24.27;7.07;;;22.30;99.90;;;;;;5060431;28;20262;-74
2022/04/11 08:22:43;;;;;;;18.77;5.82;;;22.30;99.90;;;;;;5058865;28;20660;-82
2022/04/11 08:25:16;;;;;;;13.35;5.05;;;22.20;99.90;;;;;;5056059;28;20199;-84
2022/04/11 08:27:47;;;;;;;20.08;5.60;;;22.20;99.90;;;;;;5067570;28;20189;-79
2022/04/11 08:30:17;;;;;;;13.60;5.03;;;22.10;99.90;;;;;;5067378;28;20193;-78
2022/04/11 08:32:49;;;;;;;19.70;5.25;;;22.10;99.90;;;;;;5057430;28;20713;-81
2022/04/11 08:35:22;;;;;;;19.92;5.03;;;22.10;99.90;;;;;;5065472;28;20247;-82
2022/04/11 08:37:53;;;;;;;21.05;5.00;;;22.10;99.90;;;;;;5062575;28;20213;-82
2022/04/11 08:40:25;;;;;;;15.70;4.78;;;22.10;99.90;;;;;;5064077;28;20189;-83
2022/04/11 08:42:56;;;;;;;17.27;4.88;;;22.10;99.90;;;;;;5061831;28;20661;-82
2022/04/11 08:45:27;;;;;;;20.98;5.00;;;22.00;99.90;;;;;;5057457;28;20220;-78
2022/04/11 08:47:58;;;;;;;19.33;4.55;;;22.00;99.90;;;;;;5061528;28;20228;-80
2022/04/11 08:50:29;;;;;;;24.45;4.55;;;22.00;99.90;;;;;;5060500;28;20192;-77
2022/04/11 08:53:00;;;;;;;24.05;4.43;;;22.00;99.90;;;;;;5064978;28;20239;-82
2022/04/11 08:55:34;;;;;;;18.77;4.10;;;22.00;99.90;;;;;;5066642;28;20598;-75
2022/04/11 08:58:05;;;;;;;24.42;4.80;;;22.00;99.90;;;;;;5063785;28;20211;-81
2022/04/11 09:00:35;;;;;;;19.75;4.38;;;22.00;99.90;;;;;;5059085;28;20181;-79
2022/04/11 09:03:06;;;;;;;17.00;3.88;;;22.00;99.90;;;;;;5066100;28;20235;-80
2022/04/11 09:05:36;;;;;;;19.02;4.18;;;22.10;99.90;;;;;;5067146;28;20185;-74
2022/04/11 09:08:07;;;;;;;23.58;4.43;;;22.00;99.90;;;;;;5055837;28;20250;-82
2022/04/11 09:10:40;;;;;;;20.80;4.50;;;22.00;99.90;;;;;;5060542;28;20193;-78
2022/04/11 09:13:11;;;;;;;20.55;3.70;;;22.00;99.90;;;;;;5064008;28;20185;-77
2022/04/11 09:15:43;;;;;;;16.90;3.55;;;22.00;99.90;;;;;;5057828;28;20193;-78
2022/04/11 09:18:14;;;;;;;16.50;3.80;;;22.00;99.90;;;;;;5058451;28;20228;-77
2022/04/11 09:20:45;;;;;;;16.13;4.03;;;22.00;99.90;;;;;;5061581;28;20193;-80
2022/04/11 09:23:25;;;;;;;19.98;4.70;;;22.00;99.90;;;;;;5056617;28;20186;-83
2022/04/11 09:25:58;;;;;;;19.63;4.30;;;22.00;99.90;;;;;;5060457;28;20711;-81
2022/04/11 09:28:29;;;;;;;17.48;4.50;;;22.00;99.90;;;;;;5067150;28;20193;-79
2022/04/11 09:31:09;;;;;;;21.10;4.40;;;22.00;99.90;;;;;;5070068;28;20197;-78
2022/04/11 09:33:43;;;;;;;15.85;3.92;;;21.90;99.90;;;;;;5067931;28;20182;-76
2022/04/11 09:36:13;;;;;;;21.48;3.78;;;21.90;99.90;;;;;;5058314;28;20606;-79
2022/04/11 09:38:44;;;;;;;17.42;3.90;;;21.90;99.90;;;;;;5053419;28;20186;-79
2022/04/11 09:41:28;;;;;;;18.10;4.45;;;21.90;99.90;;;;;;5055643;28;20247;-79
2022/04/11 09:43:58;;;;;;;18.52;4.25;;;21.90;99.90;;;;;;5064926;28;20268;-75
2022/04/11 09:46:46;;;;;;;15.68;3.63;;;21.90;99.90;;;;;;5060742;28;20217;-77
2022/04/11 09:49:17;;;;;;;15.75;3.55;;;21.80;99.90;;;;;;5057296;28;20243;-81
2022/04/11 09:52:20;;;;;;;15.65;3.58;;;21.80;99.90;;;;;;5056015;28;20293;-75
2022/04/11 09:54:52;;;;;;;14.40;3.28;;;21.70;99.90;;;;;;5035533;28;20186;-76
2022/04/11 09:57:27;;;;;;;16.83;3.28;;;21.70;99.90;;;;;;5032442;28;20222;-81
2022/04/11 10:00:00;;;;;;;21.70;7.15;;;21.60;99.90;;;;;;5043361;28;20205;-80
2022/04/11 10:02:31;;;;;;;43.05;22.80;;;21.60;99.90;;;;;;5053136;28;20272;-81
2022/04/11 10:05:02;;;;;;;19.80;6.55;;;21.50;99.90;;;;;;5055485;28;20243;-79
2022/04/11 10:07:34;;;;;;;22.40;6.18;;;21.40;99.90;;;;;;5064844;28;20194;-81
2022/04/11 10:10:08;;;;;;;13.23;4.43;;;21.40;99.90;;;;;;5054829;28;20201;-75
2022/04/11 10:12:42;;;;;;;15.23;4.07;;;21.30;99.90;;;;;;5054359;28;20224;-79
2022/04/11 10:15:13;;;;;;;20.23;5.40;;;21.30;99.90;;;;;;5061581;28;20272;-79
2022/04/11 10:17:43;;;;;;;15.18;3.97;;;21.30;99.90;;;;;;5069266;28;20213;-78
2022/04/11 10:20:14;;;;;;;13.32;3.20;;;21.30;99.90;;;;;;5054010;28;20255;-83
2022/04/11 10:22:57;;;;;;;15.60;3.78;;;21.20;99.90;;;;;;5055552;28;20941;-83
2022/04/11 10:25:29;;;;;;;17.10;3.90;;;21.20;99.90;;;;;;5059730;28;20196;-80
2022/04/11 10:28:21;;;;;;;18.30;3.90;;;21.20;99.90;;;;;;5056857;28;20244;-81
2022/04/11 10:31:08;;;;;;;19.20;4.60;;;21.20;99.90;;;;;;5058505;28;20193;-81
2022/04/11 10:33:52;;;;;;;22.00;4.10;;;21.20;99.90;;;;;;5054766;28;20205;-80
2022/04/11 10:36:35;;;;;;;15.23;3.67;;;21.20;99.90;;;;;;5053423;28;20189;-80
2022/04/11 10:39:26;;;;;;;19.27;4.10;;;21.20;99.90;;;;;;5053204;28;20637;-81
2022/04/11 10:42:15;;;;;;;23.58;3.38;;;21.20;99.90;;;;;;5052461;28;20255;-77
2022/04/11 10:44:50;;;;;;;26.38;4.00;;;21.20;99.90;;;;;;5059105;28;20194;-79
2022/04/11 10:47:37;;;;;;;18.92;3.88;;;21.20;99.90;;;;;;5060059;28;20779;-80
2022/04/11 10:50:25;;;;;;;19.52;3.50;;;21.20;99.90;;;;;;5051682;28;20189;-82
2022/04/11 10:53:09;;;;;;;19.83;3.45;;;21.20;99.90;;;;;;5064207;28;20746;-82
2022/04/11 10:55:55;;;;;;;19.83;3.42;;;21.20;99.90;;;;;;5059618;28;20185;-82
2022/04/11 10:58:41;;;;;;;14.02;2.80;;;21.20;99.90;;;;;;5062002;28;20210;-83
2022/04/11 11:01:14;;;;;;;22.58;3.72;;;21.20;99.90;;;;;;5056623;28;20186;-84
2022/04/11 11:04:01;;;;;;;27.98;4.72;;;21.20;99.90;;;;;;5061066;28;20189;-82
2022/04/11 11:06:31;;;;;;;17.13;3.45;;;21.20;99.90;;;;;;5065079;28;20189;-82
2022/04/11 11:09:18;;;;;;;23.33;6.07;;;21.20;99.90;;;;;;5056230;28;20189;-78
2022/04/11 11:11:49;;;;;;;19.70;3.83;;;21.20;99.90;;;;;;5067384;28;20563;-82
2022/04/11 11:14:43;;;;;;;20.20;3.40;;;21.10;99.90;;;;;;5058760;28;20189;-82
2022/04/11 11:17:15;;;;;;;18.95;3.40;;;21.10;99.90;;;;;;5061283;28;20217;-83
2022/04/11 11:20:07;;;;;;;16.80;3.50;;;21.10;99.90;;;;;;5059870;28;20186;-83
2022/04/11 11:23:10;;;;;;;21.63;3.65;;;21.10;99.90;;;;;;5065886;28;20194;-82
2022/04/11 11:25:42;;;;;;;19.50;3.03;;;21.10;99.90;;;;;;5066943;28;20197;-81
2022/04/11 11:28:15;;;;;;;20.08;3.47;;;21.10;99.90;;;;;;5055820;28;20194;-82
2022/04/11 11:30:46;;;;;;;21.70;3.60;;;21.10;99.90;;;;;;5058687;28;20239;-81
2022/04/11 11:33:20;;;;;;;17.88;3.17;;;21.00;99.90;;;;;;5069084;28;20540;-83
2022/04/11 11:35:55;;;;;;;20.17;3.40;;;21.00;99.90;;;;;;5066715;28;20189;-82
2022/04/11 11:38:27;;;;;;;21.27;3.28;;;21.00;99.90;;;;;;5068754;28;20213;-82
2022/04/11 11:40:59;;;;;;;20.55;3.25;;;21.00;99.90;;;;;;5067987;28;20181;-81
2022/04/11 11:43:30;;;;;;;21.58;3.55;;;20.90;99.90;;;;;;5056377;28;20232;-81
2022/04/11 11:46:02;;;;;;;16.98;2.88;;;20.90;99.90;;;;;;5061216;28;20212;-81
2022/04/11 11:48:36;;;;;;;19.75;2.97;;;21.00;99.90;;;;;;5058353;28;20228;-81
2022/04/11 11:51:06;;;;;;;20.00;3.72;;;20.90;99.90;;;;;;5059220;28;20186;-83
2022/04/11 11:53:49;;;;;;;15.00;3.38;;;20.90;99.90;;;;;;5055558;28;20182;-82
2022/04/11 11:56:20;;;;;;;20.27;3.53;;;20.90;99.90;;;;;;5057947;28;20669;-80
2022/04/11 11:58:51;;;;;;;14.25;2.88;;;20.80;99.90;;;;;;5056329;28;20275;-80
2022/04/11 12:01:21;;;;;;;22.63;3.08;;;20.80;99.90;;;;;;5065280;28;20236;-80
2022/04/11 12:06:43;;;;;;;18.70;2.80;;;20.80;99.90;;;;;;5058319;28;20208;-78
2022/04/11 12:09:14;;;;;;;21.15;3.30;;;20.70;99.90;;;;;;5061641;28;20284;-81
2022/04/11 12:11:44;;;;;;;20.85;2.92;;;20.70;99.90;;;;;;5054613;28;20190;-75
2022/04/11 12:14:15;;;;;;;18.40;3.00;;;20.60;99.90;;;;;;5055773;28;20185;-78
2022/04/11 12:17:00;;;;;;;14.65;2.70;;;20.60;99.90;;;;;;5060022;28;20185;-75
2022/04/11 12:19:39;;;;;;;21.20;2.80;;;20.50;99.90;;;;;;5054233;28;20197;-74
2022/04/11 12:22:14;;;;;;;13.95;2.90;;;20.50;99.90;;;;;;5061481;28;20617;-79
2022/04/11 12:24:45;;;;;;;16.60;2.88;;;20.50;99.90;;;;;;5064081;28;20189;-80
2022/04/11 12:27:24;;;;;;;15.43;3.05;;;20.50;99.90;;;;;;5056658;28;20664;-75
2022/04/11 12:29:55;;;;;;;20.90;3.58;;;20.50;99.90;;;;;;5054781;28;20243;-80
2022/04/11 12:32:25;;;;;;;15.15;2.97;;;20.50;99.90;;;;;;5058069;28;20371;-81
2022/04/11 12:35:15;;;;;;;15.02;2.80;;;20.40;99.90;;;;;;5065541;28;20193;-79
2022/04/11 12:37:51;;;;;;;13.10;2.67;;;20.40;99.90;;;;;;5061872;28;20209;-79
2022/04/11 12:40:22;;;;;;;18.95;3.17;;;20.40;99.90;;;;;;5067613;28;20285;-81
2022/04/11 12:43:01;;;;;;;12.05;2.40;;;20.40;99.90;;;;;;5072927;28;20250;-77
2022/04/11 12:45:34;;;;;;;15.73;2.85;;;20.40;99.90;;;;;;5059385;28;20753;-78
2022/04/11 12:48:08;;;;;;;16.60;3.10;;;20.40;99.90;;;;;;5064051;28;20307;-79
2022/04/11 12:50:41;;;;;;;15.52;2.92;;;20.40;99.90;;;;;;5059177;28;20204;-74
2022/04/11 12:53:11;;;;;;;17.90;3.15;;;20.40;99.90;;;;;;5064972;28;20196;-78
2022/04/11 12:55:42;;;;;;;15.15;2.95;;;20.40;99.90;;;;;;5071004;28;20204;-81
2022/04/11 12:58:13;;;;;;;17.85;2.85;;;20.40;99.90;;;;;;5055049;28;20210;-82
2022/04/11 13:00:57;;;;;;;15.70;2.67;;;20.40;99.90;;;;;;5055074;28;20281;-80
2022/04/11 13:03:28;;;;;;;18.38;3.47;;;20.40;99.90;;;;;;5064377;28;20228;-75
2022/04/11 13:06:02;;;;;;;27.08;3.60;;;20.40;99.90;;;;;;5059641;28;20189;-78
2022/04/11 13:08:32;;;;;;;16.17;3.15;;;20.40;99.90;;;;;;5062623;28;20281;-78
2022/04/11 13:11:03;;;;;;;15.80;3.03;;;20.40;99.90;;;;;;5063534;28;20185;-78
2022/04/11 13:13:37;;;;;;;18.90;2.78;;;20.30;99.90;;;;;;5063555;28;20197;-76